• Join FlightAware (Why Join?)
  • Login
  • US Flag 
04:40PM EDT


 

Airport Tracker/Info


-or-


 

Live Flight TrackerFlight Track Log ✈ BWA301 ✈ 05-Jul-2013 ✈ SVMI / CCS - TTPP / POS

Flight Track Log - Related Links

Times and Time Zones

All times are in EDT time to prevent confusion due to time zone crossing. See the BWA301 flight status page for this flight to view local times or setup timezone preferences in your user account.

Time Position Orientation Groundspeed Altitude Reporting Facility
EDT Latitude Longitude Course Direction KTS MPH feet Rate Location/Type
09:57AM 10.6052 -66.6972 90° East  Level Estimated
09:58AM 10.6057 -66.6238 90° East  Level Estimated
09:59AM 10.6061 -66.5505 90° East  Level Estimated
10:00AM 10.6066 -66.4771 90° East  Level Estimated
10:01AM 10.6070 -66.4038 90° East  Level Estimated
10:02AM 10.6074 -66.3304 90° East  Level Estimated
10:03AM 10.6078 -66.2571 90° East  Level Estimated
10:04AM 10.6082 -66.1837 90° East  Level Estimated
10:05AM 10.6086 -66.1104 90° East  Level Estimated
10:06AM 10.6089 -66.0370 90° East  Level Estimated
10:07AM 10.6092 -65.9637 90° East  Level Estimated
10:08AM 10.6095 -65.8903 90° East  Level Estimated
10:09AM 10.6098 -65.8170 90° East  Level Estimated
10:10AM 10.6101 -65.7436 90° East  Level Estimated
10:11AM 10.6103 -65.6703 90° East  Level Estimated
10:12AM 10.6106 -65.5969 90° East  Level Estimated
10:13AM 10.6108 -65.5236 90° East  Level Estimated
10:14AM 10.6110 -65.4502 90° East  Level Estimated
10:15AM 10.6112 -65.3769 90° East  Level Estimated
10:16AM 10.6114 -65.3035 90° East  Level Estimated
10:17AM 10.6115 -65.2302 90° East  Level Estimated
10:18AM 10.6117 -65.1568 90° East  Level Estimated
10:19AM 10.6118 -65.0835 90° East  Level Estimated
10:20AM 10.6119 -65.0101 90° East  Level Estimated
10:21AM 10.6120 -64.9367 90° East  Level Estimated
10:22AM 10.6121 -64.8634 90° East  Level Estimated
10:23AM 10.6121 -64.7900 90° East  Level Estimated
10:24AM 10.6121 -64.7167 90° East  Level Estimated
10:25AM 10.6122 -64.6433 90° East  Level Estimated
10:26AM 10.6122 -64.5699 90° East  Level Estimated
10:27AM 10.6121 -64.4966 90° East  Level Estimated
10:28AM 10.6121 -64.4232 90° East  Level Estimated
10:29AM 10.6121 -64.3499 90° East  Level Estimated
10:30AM 10.6120 -64.2765 90° East  Level Estimated
10:31AM 10.6119 -64.2031 90° East  Level Estimated
10:32AM 10.6118 -64.1298 90° East  Level Estimated
10:33AM 10.6117 -64.0564 90° East  Level Estimated
10:34AM 10.6116 -63.9831 90° East  Level Estimated
10:35AM 10.6114 -63.9097 90° East  Level Estimated
10:36AM 10.6112 -63.8364 90° East  Level Estimated
10:37AM 10.6111 -63.7630 90° East  Level Estimated
10:38AM 10.6109 -63.6897 90° East  Level Estimated
10:39AM 10.6106 -63.6163 90° East  Level Estimated
10:40AM 10.6104 -63.5430 90° East  Level Estimated
10:41AM 10.6102 -63.4696 90° East  Level Estimated
10:42AM 10.6099 -63.3963 90° East  Level Estimated
10:43AM 10.6096 -63.3229 90° East  Level Estimated
10:44AM 10.6093 -63.2496 90° East  Level Estimated
10:45AM 10.6090 -63.1762 90° East  Level Estimated
10:46AM 10.6086 -63.1029 90° East  Level Estimated
10:47AM 10.6083 -63.0295 90° East  Level Estimated
10:48AM 10.6079 -62.9562 90° East  Level Estimated
10:49AM 10.6075 -62.8828 90° East  Level Estimated
10:50AM 10.6071 -62.8095 90° East  Level Estimated
10:51AM 10.6067 -62.7361 90° East  Level Estimated
10:52AM 10.6062 -62.6628 90° East  Level Estimated
10:53AM 10.6058 -62.5894 90° East  Level Estimated
10:54AM 10.6053 -62.5161 90° East  Level Estimated
10:55AM 10.6048 -62.4427 90° East  Level Estimated
10:56AM 10.6043 -62.3694 90° East  Level Estimated
10:57AM 10.6038 -62.2960 90° East  Level Estimated
10:58AM 10.6032 -62.2227 90° East  Level Estimated
10:59AM 10.6027 -62.1493 90° East  Level Estimated
11:00AM 10.6021 -62.0760 90° East  Level Estimated
11:01AM 10.6015 -62.0026 90° East  Level Estimated
11:02AM 10.6009 -61.9293 90° East  Level Estimated
11:03AM 10.6003 -61.8559 90° East  Level Estimated
11:04AM 10.5996 -61.7826 91° East  Level Estimated
11:05AM 10.5990 -61.7092 91° East  Level Estimated
11:06AM 10.5983 -61.6359 91° East  Level Estimated
11:07AM 10.5976 -61.5625 91° East  Level Estimated
11:08AM 10.5969 -61.4892 91° East  Level Estimated
11:09AM 10.5962 -61.4158 91° East  Level Estimated
11:10AM 10.5954 -61.3425 91° East  Level Estimated
11:11AM 10.5954 -61.3372 91° East  Level Estimated
11:12AM 10.5954 -61.3372 243° Southwest  Level Estimated
11:13AM 10.5954 -61.3372 243° Southwest  Level Estimated
11:14AM 10.5954 -61.3372 243° Southwest  Level Estimated
11:15AM 10.5954 -61.3372 243° Southwest  Level Estimated
11:16AM 10.5954 -61.3372 243° Southwest  Level Estimated
11:17AM 10.5954 -61.3372 243° Southwest  Level Estimated
11:18AM 10.5954 -61.3372 243° Southwest  Level Estimated
11:19AM 10.5954 -61.3372 243° Southwest  Level Estimated
11:20AM 10.5954 -61.3372 243° Southwest  Level Estimated
11:21AM 10.5954 -61.3372 243° Southwest  Level Estimated
11:22AM 10.5954 -61.3372 243° Southwest  Level Estimated
11:23AM 10.5954 -61.3372 243° Southwest  Level Estimated
11:24AM 10.5954 -61.3372 243° Southwest  Level Estimated
11:25AM 10.5954 -61.3372 243° Southwest  Level Estimated
11:26AM 10.5954 -61.3372 243° Southwest  Level Estimated